sensor_id;sensor_type;location;lat;lon;timestamp;P1;durP1;ratioP1;P2;durP2;ratioP2
11596;SDS011;5854;48.072;16.286;2022-12-18T00:01:23;17.40;;;12.48;;
11596;SDS011;5854;48.072;16.286;2022-12-18T00:03:53;19.83;;;11.77;;
11596;SDS011;5854;48.072;16.286;2022-12-18T00:06:21;19.50;;;12.05;;
11596;SDS011;5854;48.072;16.286;2022-12-18T00:08:50;16.38;;;10.57;;
11596;SDS011;5854;48.072;16.286;2022-12-18T00:11:20;14.40;;;10.40;;
11596;SDS011;5854;48.072;16.286;2022-12-18T00:13:50;14.52;;;10.23;;
11596;SDS011;5854;48.072;16.286;2022-12-18T00:16:21;18.10;;;10.43;;
11596;SDS011;5854;48.072;16.286;2022-12-18T00:18:51;19.20;;;11.65;;
11596;SDS011;5854;48.072;16.286;2022-12-18T00:21:21;14.95;;;10.13;;
11596;SDS011;5854;48.072;16.286;2022-12-18T00:23:48;16.98;;;10.00;;
11596;SDS011;5854;48.072;16.286;2022-12-18T00:26:17;15.00;;;9.43;;
11596;SDS011;5854;48.072;16.286;2022-12-18T00:28:46;18.30;;;10.43;;
11596;SDS011;5854;48.072;16.286;2022-12-18T00:31:15;15.93;;;10.25;;
11596;SDS011;5854;48.072;16.286;2022-12-18T00:33:45;12.13;;;9.63;;
11596;SDS011;5854;48.072;16.286;2022-12-18T00:36:14;12.65;;;9.40;;
11596;SDS011;5854;48.072;16.286;2022-12-18T00:38:43;14.82;;;9.52;;
11596;SDS011;5854;48.072;16.286;2022-12-18T00:41:11;14.75;;;9.68;;
11596;SDS011;5854;48.072;16.286;2022-12-18T00:44:01;13.27;;;8.93;;
11596;SDS011;5854;48.072;16.286;2022-12-18T00:46:30;13.90;;;9.43;;
11596;SDS011;5854;48.072;16.286;2022-12-18T00:48:57;14.10;;;9.50;;
11596;SDS011;5854;48.072;16.286;2022-12-18T00:51:24;12.05;;;9.05;;
11596;SDS011;5854;48.072;16.286;2022-12-18T00:53:52;14.48;;;9.43;;
11596;SDS011;5854;48.072;16.286;2022-12-18T00:56:19;10.38;;;9.35;;
11596;SDS011;5854;48.072;16.286;2022-12-18T00:58:46;13.35;;;10.25;;
11596;SDS011;5854;48.072;16.286;2022-12-18T01:01:13;12.15;;;8.63;;
11596;SDS011;5854;48.072;16.286;2022-12-18T01:03:42;12.02;;;9.75;;
11596;SDS011;5854;48.072;16.286;2022-12-18T01:06:10;11.30;;;9.32;;
11596;SDS011;5854;48.072;16.286;2022-12-18T01:08:39;12.30;;;9.18;;
11596;SDS011;5854;48.072;16.286;2022-12-18T01:11:07;14.55;;;10.40;;
11596;SDS011;5854;48.072;16.286;2022-12-18T01:13:36;14.23;;;10.50;;
11596;SDS011;5854;48.072;16.286;2022-12-18T01:16:04;14.73;;;10.25;;
11596;SDS011;5854;48.072;16.286;2022-12-18T01:18:31;14.52;;;9.95;;
11596;SDS011;5854;48.072;16.286;2022-12-18T01:21:00;18.35;;;9.43;;
11596;SDS011;5854;48.072;16.286;2022-12-18T01:23:32;14.35;;;10.57;;
11596;SDS011;5854;48.072;16.286;2022-12-18T01:26:03;14.60;;;10.45;;
11596;SDS011;5854;48.072;16.286;2022-12-18T01:28:32;14.70;;;10.40;;
11596;SDS011;5854;48.072;16.286;2022-12-18T01:31:09;15.40;;;10.10;;
11596;SDS011;5854;48.072;16.286;2022-12-18T01:33:42;16.47;;;11.60;;
11596;SDS011;5854;48.072;16.286;2022-12-18T01:36:15;17.38;;;11.73;;
11596;SDS011;5854;48.072;16.286;2022-12-18T01:38:45;17.08;;;11.50;;
11596;SDS011;5854;48.072;16.286;2022-12-18T01:41:13;17.88;;;11.32;;
11596;SDS011;5854;48.072;16.286;2022-12-18T01:43:43;21.23;;;11.52;;
11596;SDS011;5854;48.072;16.286;2022-12-18T01:46:17;21.20;;;12.77;;
11596;SDS011;5854;48.072;16.286;2022-12-18T01:48:47;18.73;;;12.35;;
11596;SDS011;5854;48.072;16.286;2022-12-18T01:51:18;15.88;;;11.48;;
11596;SDS011;5854;48.072;16.286;2022-12-18T01:53:46;16.88;;;11.23;;
11596;SDS011;5854;48.072;16.286;2022-12-18T01:56:15;18.25;;;12.27;;
11596;SDS011;5854;48.072;16.286;2022-12-18T01:58:48;20.75;;;12.90;;
11596;SDS011;5854;48.072;16.286;2022-12-18T02:01:21;18.33;;;12.48;;
11596;SDS011;5854;48.072;16.286;2022-12-18T02:03:50;20.27;;;12.80;;
11596;SDS011;5854;48.072;16.286;2022-12-18T02:06:22;23.27;;;13.65;;
11596;SDS011;5854;48.072;16.286;2022-12-18T02:08:58;20.33;;;12.65;;
11596;SDS011;5854;48.072;16.286;2022-12-18T02:11:39;19.75;;;13.13;;
11596;SDS011;5854;48.072;16.286;2022-12-18T02:14:16;18.67;;;12.52;;
11596;SDS011;5854;48.072;16.286;2022-12-18T02:16:51;20.45;;;14.05;;
11596;SDS011;5854;48.072;16.286;2022-12-18T02:19:41;24.95;;;13.43;;
11596;SDS011;5854;48.072;16.286;2022-12-18T02:22:27;16.65;;;11.95;;
11596;SDS011;5854;48.072;16.286;2022-12-18T02:25:07;24.55;;;12.70;;
11596;SDS011;5854;48.072;16.286;2022-12-18T02:27:48;18.27;;;12.52;;
11596;SDS011;5854;48.072;16.286;2022-12-18T02:30:17;23.95;;;13.57;;
11596;SDS011;5854;48.072;16.286;2022-12-18T02:32:46;22.23;;;13.05;;
11596;SDS011;5854;48.072;16.286;2022-12-18T02:35:17;17.10;;;11.65;;
11596;SDS011;5854;48.072;16.286;2022-12-18T02:37:48;20.17;;;12.85;;
11596;SDS011;5854;48.072;16.286;2022-12-18T02:40:17;21.85;;;13.68;;
11596;SDS011;5854;48.072;16.286;2022-12-18T02:42:45;19.83;;;13.35;;
11596;SDS011;5854;48.072;16.286;2022-12-18T02:45:13;22.65;;;13.25;;
11596;SDS011;5854;48.072;16.286;2022-12-18T02:47:41;17.20;;;11.93;;
11596;SDS011;5854;48.072;16.286;2022-12-18T02:50:13;21.73;;;12.95;;
11596;SDS011;5854;48.072;16.286;2022-12-18T02:52:51;21.60;;;13.52;;
11596;SDS011;5854;48.072;16.286;2022-12-18T02:55:33;16.97;;;11.90;;
11596;SDS011;5854;48.072;16.286;2022-12-18T02:58:14;19.70;;;12.38;;
11596;SDS011;5854;48.072;16.286;2022-12-18T03:00:48;16.88;;;12.00;;
11596;SDS011;5854;48.072;16.286;2022-12-18T03:03:24;23.10;;;12.95;;
11596;SDS011;5854;48.072;16.286;2022-12-18T03:05:56;17.83;;;12.80;;
11596;SDS011;5854;48.072;16.286;2022-12-18T03:08:29;16.58;;;11.68;;
11596;SDS011;5854;48.072;16.286;2022-12-18T03:11:03;16.38;;;12.02;;
11596;SDS011;5854;48.072;16.286;2022-12-18T03:13:34;18.60;;;12.48;;
11596;SDS011;5854;48.072;16.286;2022-12-18T03:16:06;15.10;;;11.52;;
11596;SDS011;5854;48.072;16.286;2022-12-18T03:18:39;16.25;;;11.35;;
11596;SDS011;5854;48.072;16.286;2022-12-18T03:21:11;16.45;;;12.13;;
11596;SDS011;5854;48.072;16.286;2022-12-18T03:23:42;18.08;;;12.35;;
11596;SDS011;5854;48.072;16.286;2022-12-18T03:26:15;18.20;;;12.25;;
11596;SDS011;5854;48.072;16.286;2022-12-18T03:28:47;15.95;;;11.65;;
11596;SDS011;5854;48.072;16.286;2022-12-18T03:31:19;16.42;;;10.68;;
11596;SDS011;5854;48.072;16.286;2022-12-18T03:33:51;20.48;;;11.68;;
11596;SDS011;5854;48.072;16.286;2022-12-18T03:36:19;17.17;;;11.15;;
11596;SDS011;5854;48.072;16.286;2022-12-18T03:38:47;20.80;;;12.20;;
11596;SDS011;5854;48.072;16.286;2022-12-18T03:41:16;16.83;;;11.27;;
11596;SDS011;5854;48.072;16.286;2022-12-18T03:43:50;22.42;;;12.63;;
11596;SDS011;5854;48.072;16.286;2022-12-18T03:46:26;16.63;;;11.70;;
11596;SDS011;5854;48.072;16.286;2022-12-18T03:48:58;15.40;;;11.32;;
11596;SDS011;5854;48.072;16.286;2022-12-18T03:51:36;18.60;;;11.65;;
11596;SDS011;5854;48.072;16.286;2022-12-18T03:54:09;17.77;;;12.70;;
11596;SDS011;5854;48.072;16.286;2022-12-18T03:56:38;17.30;;;10.77;;
11596;SDS011;5854;48.072;16.286;2022-12-18T03:59:11;17.30;;;10.93;;
11596;SDS011;5854;48.072;16.286;2022-12-18T04:01:43;17.85;;;11.10;;
11596;SDS011;5854;48.072;16.286;2022-12-18T04:04:14;17.42;;;13.00;;
11596;SDS011;5854;48.072;16.286;2022-12-18T04:06:42;15.90;;;12.00;;
11596;SDS011;5854;48.072;16.286;2022-12-18T04:09:12;18.27;;;11.88;;
11596;SDS011;5854;48.072;16.286;2022-12-18T04:11:39;18.83;;;11.50;;
11596;SDS011;5854;48.072;16.286;2022-12-18T04:14:08;15.48;;;11.43;;
11596;SDS011;5854;48.072;16.286;2022-12-18T04:16:36;14.77;;;11.77;;
11596;SDS011;5854;48.072;16.286;2022-12-18T04:19:05;16.75;;;12.52;;
11596;SDS011;5854;48.072;16.286;2022-12-18T04:21:32;15.90;;;11.85;;
11596;SDS011;5854;48.072;16.286;2022-12-18T04:23:59;15.90;;;11.65;;
11596;SDS011;5854;48.072;16.286;2022-12-18T04:26:26;16.92;;;11.40;;
11596;SDS011;5854;48.072;16.286;2022-12-18T04:28:53;20.23;;;12.15;;
11596;SDS011;5854;48.072;16.286;2022-12-18T04:31:20;16.27;;;11.48;;
11596;SDS011;5854;48.072;16.286;2022-12-18T04:33:47;19.33;;;11.93;;
11596;SDS011;5854;48.072;16.286;2022-12-18T04:36:16;16.27;;;11.10;;
11596;SDS011;5854;48.072;16.286;2022-12-18T04:38:43;14.65;;;10.60;;
11596;SDS011;5854;48.072;16.286;2022-12-18T04:41:10;17.35;;;11.95;;
11596;SDS011;5854;48.072;16.286;2022-12-18T04:43:38;16.85;;;11.07;;
11596;SDS011;5854;48.072;16.286;2022-12-18T04:46:06;24.08;;;14.65;;
11596;SDS011;5854;48.072;16.286;2022-12-18T04:48:34;20.10;;;11.70;;
11596;SDS011;5854;48.072;16.286;2022-12-18T04:51:02;15.57;;;11.77;;
11596;SDS011;5854;48.072;16.286;2022-12-18T04:53:31;19.27;;;11.52;;
11596;SDS011;5854;48.072;16.286;2022-12-18T04:56:05;18.15;;;11.13;;
11596;SDS011;5854;48.072;16.286;2022-12-18T04:58:34;23.30;;;12.90;;
11596;SDS011;5854;48.072;16.286;2022-12-18T05:01:02;19.70;;;12.45;;
11596;SDS011;5854;48.072;16.286;2022-12-18T05:03:29;20.88;;;11.55;;
11596;SDS011;5854;48.072;16.286;2022-12-18T05:05:56;17.13;;;10.52;;
11596;SDS011;5854;48.072;16.286;2022-12-18T05:08:23;17.25;;;11.50;;
11596;SDS011;5854;48.072;16.286;2022-12-18T05:10:59;17.67;;;11.82;;
11596;SDS011;5854;48.072;16.286;2022-12-18T05:13:26;16.98;;;12.15;;
11596;SDS011;5854;48.072;16.286;2022-12-18T05:15:54;18.92;;;11.45;;
11596;SDS011;5854;48.072;16.286;2022-12-18T05:18:21;18.15;;;11.57;;
11596;SDS011;5854;48.072;16.286;2022-12-18T05:20:48;24.65;;;11.52;;
11596;SDS011;5854;48.072;16.286;2022-12-18T05:23:16;16.95;;;12.32;;
11596;SDS011;5854;48.072;16.286;2022-12-18T05:25:46;20.83;;;12.93;;
11596;SDS011;5854;48.072;16.286;2022-12-18T05:28:18;17.35;;;11.43;;
11596;SDS011;5854;48.072;16.286;2022-12-18T05:30:47;19.50;;;12.48;;
11596;SDS011;5854;48.072;16.286;2022-12-18T05:33:15;17.48;;;12.45;;
11596;SDS011;5854;48.072;16.286;2022-12-18T05:35:42;21.00;;;11.73;;
11596;SDS011;5854;48.072;16.286;2022-12-18T05:38:10;23.15;;;11.85;;
11596;SDS011;5854;48.072;16.286;2022-12-18T05:40:37;17.75;;;12.20;;
11596;SDS011;5854;48.072;16.286;2022-12-18T05:43:08;29.00;;;14.10;;
11596;SDS011;5854;48.072;16.286;2022-12-18T05:45:37;21.05;;;12.90;;
11596;SDS011;5854;48.072;16.286;2022-12-18T05:48:05;18.52;;;11.40;;
11596;SDS011;5854;48.072;16.286;2022-12-18T05:50:34;21.13;;;11.57;;
11596;SDS011;5854;48.072;16.286;2022-12-18T05:53:01;19.60;;;12.80;;
11596;SDS011;5854;48.072;16.286;2022-12-18T05:55:28;21.75;;;12.93;;
11596;SDS011;5854;48.072;16.286;2022-12-18T05:57:56;18.90;;;12.88;;
11596;SDS011;5854;48.072;16.286;2022-12-18T06:00:23;17.52;;;11.80;;
11596;SDS011;5854;48.072;16.286;2022-12-18T06:02:51;26.15;;;14.43;;
11596;SDS011;5854;48.072;16.286;2022-12-18T06:05:18;21.92;;;13.50;;
11596;SDS011;5854;48.072;16.286;2022-12-18T06:07:45;24.20;;;14.05;;
11596;SDS011;5854;48.072;16.286;2022-12-18T06:10:12;19.38;;;12.02;;
11596;SDS011;5854;48.072;16.286;2022-12-18T06:12:39;24.70;;;13.00;;
11596;SDS011;5854;48.072;16.286;2022-12-18T06:15:07;22.02;;;12.60;;
11596;SDS011;5854;48.072;16.286;2022-12-18T06:17:35;21.67;;;14.65;;
11596;SDS011;5854;48.072;16.286;2022-12-18T06:20:04;21.85;;;13.75;;
11596;SDS011;5854;48.072;16.286;2022-12-18T06:22:32;21.55;;;14.20;;
11596;SDS011;5854;48.072;16.286;2022-12-18T06:24:59;21.35;;;13.63;;
11596;SDS011;5854;48.072;16.286;2022-12-18T06:27:27;19.92;;;13.80;;
11596;SDS011;5854;48.072;16.286;2022-12-18T06:29:54;25.40;;;14.98;;
11596;SDS011;5854;48.072;16.286;2022-12-18T06:32:21;18.50;;;12.52;;
11596;SDS011;5854;48.072;16.286;2022-12-18T06:34:48;18.27;;;12.25;;
11596;SDS011;5854;48.072;16.286;2022-12-18T06:37:16;20.38;;;13.43;;
11596;SDS011;5854;48.072;16.286;2022-12-18T06:39:43;21.13;;;12.60;;
11596;SDS011;5854;48.072;16.286;2022-12-18T06:42:11;18.58;;;12.98;;
11596;SDS011;5854;48.072;16.286;2022-12-18T06:44:38;20.52;;;13.30;;
11596;SDS011;5854;48.072;16.286;2022-12-18T06:47:05;18.17;;;11.35;;
11596;SDS011;5854;48.072;16.286;2022-12-18T06:49:32;18.40;;;12.52;;
11596;SDS011;5854;48.072;16.286;2022-12-18T06:51:59;26.50;;;14.05;;
11596;SDS011;5854;48.072;16.286;2022-12-18T06:54:27;19.58;;;12.65;;
11596;SDS011;5854;48.072;16.286;2022-12-18T06:56:54;17.83;;;11.85;;
11596;SDS011;5854;48.072;16.286;2022-12-18T06:59:21;21.33;;;12.27;;
11596;SDS011;5854;48.072;16.286;2022-12-18T07:01:48;21.83;;;12.05;;
11596;SDS011;5854;48.072;16.286;2022-12-18T07:04:15;19.17;;;12.35;;
11596;SDS011;5854;48.072;16.286;2022-12-18T07:06:44;18.67;;;11.27;;
11596;SDS011;5854;48.072;16.286;2022-12-18T07:09:11;21.35;;;12.15;;
11596;SDS011;5854;48.072;16.286;2022-12-18T07:11:41;17.20;;;11.43;;
11596;SDS011;5854;48.072;16.286;2022-12-18T07:14:08;19.05;;;12.82;;
11596;SDS011;5854;48.072;16.286;2022-12-18T07:16:35;17.27;;;11.27;;
11596;SDS011;5854;48.072;16.286;2022-12-18T07:19:04;21.52;;;12.35;;
11596;SDS011;5854;48.072;16.286;2022-12-18T07:21:40;22.02;;;12.23;;
11596;SDS011;5854;48.072;16.286;2022-12-18T07:24:09;22.73;;;13.32;;
11596;SDS011;5854;48.072;16.286;2022-12-18T07:26:38;18.90;;;12.45;;
11596;SDS011;5854;48.072;16.286;2022-12-18T07:29:06;22.17;;;13.48;;
11596;SDS011;5854;48.072;16.286;2022-12-18T07:31:36;21.00;;;12.68;;
11596;SDS011;5854;48.072;16.286;2022-12-18T07:34:43;22.33;;;13.30;;
11596;SDS011;5854;48.072;16.286;2022-12-18T07:37:14;21.70;;;13.05;;
11596;SDS011;5854;48.072;16.286;2022-12-18T07:39:42;21.35;;;14.13;;
11596;SDS011;5854;48.072;16.286;2022-12-18T07:42:13;20.65;;;13.93;;
11596;SDS011;5854;48.072;16.286;2022-12-18T07:47:28;20.13;;;13.57;;
11596;SDS011;5854;48.072;16.286;2022-12-18T07:50:00;23.35;;;13.50;;
11596;SDS011;5854;48.072;16.286;2022-12-18T07:52:28;25.27;;;14.43;;
11596;SDS011;5854;48.072;16.286;2022-12-18T08:02:43;20.30;;;13.13;;
11596;SDS011;5854;48.072;16.286;2022-12-18T08:05:10;25.23;;;14.43;;
11596;SDS011;5854;48.072;16.286;2022-12-18T08:07:38;21.92;;;13.38;;
11596;SDS011;5854;48.072;16.286;2022-12-18T08:17:59;26.58;;;13.68;;
11596;SDS011;5854;48.072;16.286;2022-12-18T08:20:26;23.13;;;14.05;;
11596;SDS011;5854;48.072;16.286;2022-12-18T08:22:53;27.52;;;14.77;;
11596;SDS011;5854;48.072;16.286;2022-12-18T08:25:20;23.58;;;13.82;;
11596;SDS011;5854;48.072;16.286;2022-12-18T08:27:50;22.17;;;13.00;;
11596;SDS011;5854;48.072;16.286;2022-12-18T08:30:18;26.58;;;14.85;;
11596;SDS011;5854;48.072;16.286;2022-12-18T08:32:45;25.05;;;14.20;;
11596;SDS011;5854;48.072;16.286;2022-12-18T08:37:46;27.40;;;16.60;;
11596;SDS011;5854;48.072;16.286;2022-12-18T08:40:13;30.70;;;17.25;;
11596;SDS011;5854;48.072;16.286;2022-12-18T08:42:43;26.88;;;16.73;;
11596;SDS011;5854;48.072;16.286;2022-12-18T08:45:29;28.77;;;18.20;;
11596;SDS011;5854;48.072;16.286;2022-12-18T08:47:57;33.95;;;17.80;;
11596;SDS011;5854;48.072;16.286;2022-12-18T08:50:29;27.10;;;16.05;;
11596;SDS011;5854;48.072;16.286;2022-12-18T08:52:58;36.15;;;21.05;;
11596;SDS011;5854;48.072;16.286;2022-12-18T08:55:25;30.05;;;18.40;;
11596;SDS011;5854;48.072;16.286;2022-12-18T08:57:52;34.65;;;19.58;;
11596;SDS011;5854;48.072;16.286;2022-12-18T09:00:19;31.40;;;18.40;;
11596;SDS011;5854;48.072;16.286;2022-12-18T09:02:47;29.52;;;18.02;;
11596;SDS011;5854;48.072;16.286;2022-12-18T09:05:14;39.80;;;20.80;;
11596;SDS011;5854;48.072;16.286;2022-12-18T09:07:41;34.47;;;19.35;;
11596;SDS011;5854;48.072;16.286;2022-12-18T09:10:10;39.05;;;19.75;;
11596;SDS011;5854;48.072;16.286;2022-12-18T09:12:37;40.13;;;21.48;;
11596;SDS011;5854;48.072;16.286;2022-12-18T09:15:04;35.20;;;20.20;;
11596;SDS011;5854;48.072;16.286;2022-12-18T09:17:32;36.40;;;21.50;;
11596;SDS011;5854;48.072;16.286;2022-12-18T09:19:59;37.20;;;19.83;;
11596;SDS011;5854;48.072;16.286;2022-12-18T09:22:27;36.85;;;20.38;;
11596;SDS011;5854;48.072;16.286;2022-12-18T09:24:54;36.00;;;22.42;;
11596;SDS011;5854;48.072;16.286;2022-12-18T09:27:22;35.92;;;20.65;;
11596;SDS011;5854;48.072;16.286;2022-12-18T09:29:49;36.97;;;21.08;;
11596;SDS011;5854;48.072;16.286;2022-12-18T09:32:16;34.50;;;20.33;;
11596;SDS011;5854;48.072;16.286;2022-12-18T09:34:43;39.78;;;21.63;;
11596;SDS011;5854;48.072;16.286;2022-12-18T09:37:10;36.30;;;20.35;;
11596;SDS011;5854;48.072;16.286;2022-12-18T09:39:37;40.17;;;20.65;;
11596;SDS011;5854;48.072;16.286;2022-12-18T09:42:05;34.78;;;19.92;;
11596;SDS011;5854;48.072;16.286;2022-12-18T09:44:34;33.08;;;19.20;;
11596;SDS011;5854;48.072;16.286;2022-12-18T09:47:07;44.38;;;21.08;;
11596;SDS011;5854;48.072;16.286;2022-12-18T09:49:40;39.92;;;22.27;;
11596;SDS011;5854;48.072;16.286;2022-12-18T09:52:12;27.98;;;14.95;;
11596;SDS011;5854;48.072;16.286;2022-12-18T09:54:46;37.25;;;20.08;;
11596;SDS011;5854;48.072;16.286;2022-12-18T09:57:19;36.22;;;19.10;;
11596;SDS011;5854;48.072;16.286;2022-12-18T09:59:51;40.35;;;19.20;;
11596;SDS011;5854;48.072;16.286;2022-12-18T10:02:22;38.55;;;19.10;;
11596;SDS011;5854;48.072;16.286;2022-12-18T10:04:59;42.10;;;19.38;;
11596;SDS011;5854;48.072;16.286;2022-12-18T10:07:34;36.95;;;20.00;;
11596;SDS011;5854;48.072;16.286;2022-12-18T10:10:16;45.58;;;20.23;;
11596;SDS011;5854;48.072;16.286;2022-12-18T10:12:55;45.20;;;20.73;;
11596;SDS011;5854;48.072;16.286;2022-12-18T10:15:34;37.90;;;20.17;;
11596;SDS011;5854;48.072;16.286;2022-12-18T10:18:11;39.72;;;19.80;;
11596;SDS011;5854;48.072;16.286;2022-12-18T10:20:51;39.00;;;20.27;;
11596;SDS011;5854;48.072;16.286;2022-12-18T10:23:21;39.78;;;19.35;;
11596;SDS011;5854;48.072;16.286;2022-12-18T10:26:00;39.47;;;19.92;;
11596;SDS011;5854;48.072;16.286;2022-12-18T10:28:30;35.25;;;18.92;;
11596;SDS011;5854;48.072;16.286;2022-12-18T10:31:01;38.83;;;20.67;;
11596;SDS011;5854;48.072;16.286;2022-12-18T10:33:29;34.05;;;17.42;;
11596;SDS011;5854;48.072;16.286;2022-12-18T10:35:57;40.90;;;20.63;;
11596;SDS011;5854;48.072;16.286;2022-12-18T10:38:26;43.80;;;22.50;;
11596;SDS011;5854;48.072;16.286;2022-12-18T10:40:56;48.58;;;23.55;;
11596;SDS011;5854;48.072;16.286;2022-12-18T10:43:26;50.47;;;23.48;;
11596;SDS011;5854;48.072;16.286;2022-12-18T10:45:59;38.83;;;21.52;;
11596;SDS011;5854;48.072;16.286;2022-12-18T10:48:40;39.42;;;20.65;;
11596;SDS011;5854;48.072;16.286;2022-12-18T10:51:19;46.08;;;21.95;;
11596;SDS011;5854;48.072;16.286;2022-12-18T10:53:51;42.88;;;21.40;;
11596;SDS011;5854;48.072;16.286;2022-12-18T10:56:24;41.85;;;22.98;;
11596;SDS011;5854;48.072;16.286;2022-12-18T10:58:58;46.15;;;21.35;;
11596;SDS011;5854;48.072;16.286;2022-12-18T11:01:28;44.67;;;22.27;;
11596;SDS011;5854;48.072;16.286;2022-12-18T11:04:16;43.28;;;21.27;;
11596;SDS011;5854;48.072;16.286;2022-12-18T11:06:53;53.80;;;25.02;;
11596;SDS011;5854;48.072;16.286;2022-12-18T11:09:23;48.67;;;22.20;;
11596;SDS011;5854;48.072;16.286;2022-12-18T11:11:52;46.55;;;23.80;;
11596;SDS011;5854;48.072;16.286;2022-12-18T11:14:21;44.78;;;22.75;;
11596;SDS011;5854;48.072;16.286;2022-12-18T11:16:53;45.25;;;22.05;;
11596;SDS011;5854;48.072;16.286;2022-12-18T11:19:26;43.13;;;20.50;;
11596;SDS011;5854;48.072;16.286;2022-12-18T11:22:00;40.53;;;22.55;;
11596;SDS011;5854;48.072;16.286;2022-12-18T11:24:30;38.47;;;17.45;;
11596;SDS011;5854;48.072;16.286;2022-12-18T11:27:00;45.45;;;22.92;;
11596;SDS011;5854;48.072;16.286;2022-12-18T11:29:32;42.35;;;22.60;;
11596;SDS011;5854;48.072;16.286;2022-12-18T11:35:04;54.13;;;23.42;;
11596;SDS011;5854;48.072;16.286;2022-12-18T11:37:45;50.47;;;23.48;;
11596;SDS011;5854;48.072;16.286;2022-12-18T11:40:17;50.80;;;23.65;;
11596;SDS011;5854;48.072;16.286;2022-12-18T11:42:54;51.88;;;22.52;;
11596;SDS011;5854;48.072;16.286;2022-12-18T11:45:28;44.80;;;22.33;;
11596;SDS011;5854;48.072;16.286;2022-12-18T11:48:00;44.47;;;21.33;;
11596;SDS011;5854;48.072;16.286;2022-12-18T11:50:33;46.33;;;22.85;;
11596;SDS011;5854;48.072;16.286;2022-12-18T11:53:12;48.05;;;24.08;;
11596;SDS011;5854;48.072;16.286;2022-12-18T11:55:41;48.08;;;23.50;;
11596;SDS011;5854;48.072;16.286;2022-12-18T11:58:19;58.25;;;25.65;;
11596;SDS011;5854;48.072;16.286;2022-12-18T12:01:05;47.10;;;24.33;;
11596;SDS011;5854;48.072;16.286;2022-12-18T12:07:06;53.47;;;25.67;;
11596;SDS011;5854;48.072;16.286;2022-12-18T12:09:49;50.88;;;25.52;;
11596;SDS011;5854;48.072;16.286;2022-12-18T12:12:30;44.80;;;22.42;;
11596;SDS011;5854;48.072;16.286;2022-12-18T12:15:13;50.28;;;25.63;;
11596;SDS011;5854;48.072;16.286;2022-12-18T12:17:52;46.38;;;24.55;;
11596;SDS011;5854;48.072;16.286;2022-12-18T12:20:35;44.45;;;23.52;;
11596;SDS011;5854;48.072;16.286;2022-12-18T12:23:15;54.70;;;26.75;;
11596;SDS011;5854;48.072;16.286;2022-12-18T12:25:52;55.33;;;25.40;;
11596;SDS011;5854;48.072;16.286;2022-12-18T12:28:30;52.70;;;26.73;;
11596;SDS011;5854;48.072;16.286;2022-12-18T12:31:19;52.17;;;24.47;;
11596;SDS011;5854;48.072;16.286;2022-12-18T12:33:57;47.35;;;24.92;;
11596;SDS011;5854;48.072;16.286;2022-12-18T12:36:37;50.42;;;26.40;;
11596;SDS011;5854;48.072;16.286;2022-12-18T12:39:16;55.85;;;27.80;;
11596;SDS011;5854;48.072;16.286;2022-12-18T12:41:48;63.00;;;27.23;;
11596;SDS011;5854;48.072;16.286;2022-12-18T12:44:43;56.05;;;26.48;;
11596;SDS011;5854;48.072;16.286;2022-12-18T12:47:14;50.28;;;24.98;;
11596;SDS011;5854;48.072;16.286;2022-12-18T12:49:48;55.10;;;26.95;;
11596;SDS011;5854;48.072;16.286;2022-12-18T12:52:20;56.50;;;26.45;;
11596;SDS011;5854;48.072;16.286;2022-12-18T12:54:55;61.15;;;28.05;;
11596;SDS011;5854;48.072;16.286;2022-12-18T12:57:26;54.95;;;25.33;;
11596;SDS011;5854;48.072;16.286;2022-12-18T13:02:31;46.50;;;23.70;;
11596;SDS011;5854;48.072;16.286;2022-12-18T13:05:04;47.03;;;23.38;;
11596;SDS011;5854;48.072;16.286;2022-12-18T13:07:49;52.30;;;23.02;;
11596;SDS011;5854;48.072;16.286;2022-12-18T13:10:24;48.47;;;22.85;;
11596;SDS011;5854;48.072;16.286;2022-12-18T13:13:02;52.10;;;24.80;;
11596;SDS011;5854;48.072;16.286;2022-12-18T13:15:33;56.90;;;26.20;;
11596;SDS011;5854;48.072;16.286;2022-12-18T13:18:19;62.95;;;24.15;;
11596;SDS011;5854;48.072;16.286;2022-12-18T13:20:48;57.92;;;25.60;;
11596;SDS011;5854;48.072;16.286;2022-12-18T13:23:29;50.92;;;24.48;;
11596;SDS011;5854;48.072;16.286;2022-12-18T13:28:58;56.53;;;26.52;;
11596;SDS011;5854;48.072;16.286;2022-12-18T13:34:45;52.05;;;27.10;;
11596;SDS011;5854;48.072;16.286;2022-12-18T13:43:28;54.08;;;27.27;;
11596;SDS011;5854;48.072;16.286;2022-12-18T13:48:55;51.97;;;26.98;;
11596;SDS011;5854;48.072;16.286;2022-12-18T13:51:26;47.42;;;24.55;;
11596;SDS011;5854;48.072;16.286;2022-12-18T13:53:56;62.65;;;28.60;;
11596;SDS011;5854;48.072;16.286;2022-12-18T13:56:27;64.85;;;28.55;;
11596;SDS011;5854;48.072;16.286;2022-12-18T14:01:44;58.33;;;28.70;;
11596;SDS011;5854;48.072;16.286;2022-12-18T14:04:19;66.22;;;30.75;;
11596;SDS011;5854;48.072;16.286;2022-12-18T14:06:55;58.22;;;26.92;;
11596;SDS011;5854;48.072;16.286;2022-12-18T14:09:28;58.05;;;28.58;;
11596;SDS011;5854;48.072;16.286;2022-12-18T14:12:01;63.20;;;28.10;;
11596;SDS011;5854;48.072;16.286;2022-12-18T14:14:48;63.35;;;30.45;;
11596;SDS011;5854;48.072;16.286;2022-12-18T14:17:17;62.80;;;31.10;;
11596;SDS011;5854;48.072;16.286;2022-12-18T14:19:45;64.00;;;29.00;;
11596;SDS011;5854;48.072;16.286;2022-12-18T14:22:16;66.55;;;29.85;;
11596;SDS011;5854;48.072;16.286;2022-12-18T14:27:22;63.88;;;29.73;;
11596;SDS011;5854;48.072;16.286;2022-12-18T14:29:52;58.58;;;28.95;;
11596;SDS011;5854;48.072;16.286;2022-12-18T14:32:20;63.33;;;30.13;;
11596;SDS011;5854;48.072;16.286;2022-12-18T14:34:48;59.88;;;29.15;;
11596;SDS011;5854;48.072;16.286;2022-12-18T14:37:21;53.78;;;27.17;;
11596;SDS011;5854;48.072;16.286;2022-12-18T14:39:56;61.50;;;29.60;;
11596;SDS011;5854;48.072;16.286;2022-12-18T14:48:05;65.20;;;30.42;;
11596;SDS011;5854;48.072;16.286;2022-12-18T14:50:33;58.97;;;29.60;;
11596;SDS011;5854;48.072;16.286;2022-12-18T14:53:03;62.08;;;29.20;;
11596;SDS011;5854;48.072;16.286;2022-12-18T14:55:33;61.97;;;31.15;;
11596;SDS011;5854;48.072;16.286;2022-12-18T14:58:01;73.22;;;32.17;;
11596;SDS011;5854;48.072;16.286;2022-12-18T15:00:28;67.75;;;30.38;;
11596;SDS011;5854;48.072;16.286;2022-12-18T15:02:58;68.75;;;33.15;;
11596;SDS011;5854;48.072;16.286;2022-12-18T15:05:25;56.15;;;28.15;;
11596;SDS011;5854;48.072;16.286;2022-12-18T15:07:55;63.42;;;31.40;;
11596;SDS011;5854;48.072;16.286;2022-12-18T15:10:25;70.72;;;32.47;;
11596;SDS011;5854;48.072;16.286;2022-12-18T15:13:06;65.00;;;29.25;;
11596;SDS011;5854;48.072;16.286;2022-12-18T15:15:43;64.60;;;28.15;;
11596;SDS011;5854;48.072;16.286;2022-12-18T15:18:14;54.92;;;26.30;;
11596;SDS011;5854;48.072;16.286;2022-12-18T15:20:43;65.47;;;29.45;;
11596;SDS011;5854;48.072;16.286;2022-12-18T15:23:22;62.35;;;29.50;;
11596;SDS011;5854;48.072;16.286;2022-12-18T15:25:57;63.92;;;26.92;;
11596;SDS011;5854;48.072;16.286;2022-12-18T15:28:26;56.97;;;27.75;;
11596;SDS011;5854;48.072;16.286;2022-12-18T15:30:59;64.43;;;28.90;;
11596;SDS011;5854;48.072;16.286;2022-12-18T15:33:31;60.42;;;29.00;;
11596;SDS011;5854;48.072;16.286;2022-12-18T15:36:01;63.95;;;27.63;;
11596;SDS011;5854;48.072;16.286;2022-12-18T15:38:31;51.42;;;27.88;;
11596;SDS011;5854;48.072;16.286;2022-12-18T15:40:58;48.42;;;25.60;;